Omaha, NE (68142)

7:36 AM CST on February 11, 2016 (GMT -0600)
Douglas County | | Change Station
CLOSE
Current Station
Personal Weather Station
Location: Omaha, NE
Elevation: 1132 ft
Nearby Weather Stations

Elev 1132 ft 41.34 °N, 96.11 °W | Updated 7 minutes ago

Overcast
Overcast
14.3 °F
Feels Like 14 °F
N
0.0
Wind Variable Wind from SE
Gusts 1.0 mph

Today
High -- | Low -- °F
--% Chance of Precip.
Yesterday
High -- | Low -- °F
Precip. -- in
Pressure 30.28 in
Visibility 10.0 miles
Clouds Overcast 3200 ft
Windchill 14 °F
Dew Point 6 °F
Humidity 68%
Rainfall 0.00 in
Snow Depth Not available.
7:24 AM 5:52 PM
Waxing Crescent, 12% visible
METAR KBTA 111315Z AUTO 08004KT 10SM OVC032 M09/M15 A3028 RMK AO2 T10951152
Pressure 30.28 in
Visibility 10.0 miles
Clouds Overcast 3200 ft
Windchill 14 °F
Dew Point 6 °F
Humidity 68%
Rainfall 0.00 in
Snow Depth Not available.
7:24 AM 5:52 PM
Waxing Crescent, 12% visible
METAR KBTA 111315Z AUTO 08004KT 10SM OVC032 M09/M15 A3028 RMK AO2 T10951152

10-Day Weather Forecast

Almanac

Astronomy

Feb. 11, 2016 Rise Set
Actual Time
Civil Twilight
Nautical Twilight
Astronomical Twilight
Moon
Length of Visible Light
Length of Day
Tomorrow will be .
, % of the Moon is Illuminated

Today's Extremes

State Highs State Lows

Community

WunderPhotos

Upload Photos

1,892,045 photos uploaded!

WunderBlog® & News

Nearby

Air Quality

  Air Quality AQ Index Pollutant
Not available.

Snow Depth

Station Depth Elevation

Earthquake Activity

City Distance Mag. Time & Date
Minimum magnitude displayed is 2.5.

Coastal Water Temperatures

Place Temperature

Stations

Nearby Weather Stations

Station Location Temp. Windchill Dew Point Humidity Wind Precip. Elev Updated Type
                   

Watches & Warnings

There are currently no watches in effect.